Hlavní strana
METAR-TAF:

METAR-TAF

Letiště :

Tabarka, Tunisko

zeměpisná šířka: 36-57N, zeměpisná délka: 008-45E, výška: 20 m

Aktuální stav počasí

Zpráva byla vytvořena před 41 minutami, v 19:00 UTC
Západní vítr 6 kt
Teplota 18°C
Vlhkost vzduchu 49%
Tlak 1011 hPa
Viditelnost 10 km a více
Polojasno ve výšce 2000 ft

METAR: DTKA 221900Z 27006KT 9999 SCT020 18/07 Q1011 NOSIG

Čas: 20:41 (19:41 UTC)

Předpověď počasí

Zpráva byla vytvořena před 1 hodinou a 41 minutami, v 18:00 UTC
Předpověď platná od 22 v 19 UTC do 23 v 04 UTC
vítr z různých směrů 2 kt
Viditelnost 10 km a více
Polojasno ve výšce 2000 ft
Změna
od 22 v 19 UTC do 22 v 21 UTC
Západní vítr 15 kt
Pravděpodobnost 40% :
Dočasný
od 22 v 21 UTC do 23 v 04 UTC
Západní vítr 17 kt s nárazy do 30 kt
Skoro jasno ve výšce 2600 ft, Cumulonimbus.
bouřka, déšť

TAF: DTKA 221800Z 2219/2304 VRB02KT 9999 SCT020 BECMG 2219/2221 26015KT PROB40 TEMPO 2221/2304 26017G30KT TSRA FEW026CB

Stav a předpovědi počasí z více než 4 000 letišť (zprávy METAR a TAF).

Červené a žluté tečky na mapě představují dostupné meteorologické stanice.

Když kurzor umístíte na tečku, zobrazí se název stanice.

Pak kliknutím zobrazíte stav a předpověď počasí.

Chcete-li změnit mapu, kliknutím na zelené tlačítko se znaménkem +mapu přiblížíte, kliknutím na zelené tlačítko se znaménkem – mapu oddálíte a kliknutím na zelené šipky přejdete na sousední mapy.


METAR-TAF: